GLG7304 SLVR-SAEZ
Flight info
| Callsign | GLG7304 |
|---|---|
| Flight time | N/A |
| Altitude | 36000 |
| Route | KABOM1 KABOM UL404 ISOPO UT672 MULTA UW24 SNT SNT7X |
| Aircraft | A320/M-SDE3FGHIRWY/LB1 |
Departure
| Time | N/A |
|---|---|
| Airport | Viru Viru International Airport (SLVR) |
Arrival
| Time | 2026-05-03 20:29 |
|---|---|
| Airport | Ezeiza International Airport - Ministro Pistarini (SAEZ) |
| Time | Latitude | Longitude | Altitude | Speed | Heading |
|---|---|---|---|---|---|
| 2026-05-03 20:15 | -34.65892 | -59.00713 | 14222 ft | 353 kts | 150° |
| 2026-05-03 20:15 | -34.67266 | -58.99579 | 13915 ft | 353 kts | 150° |
| 2026-05-03 20:15 | -34.69288 | -58.97912 | 13465 ft | 352 kts | 150° |
| 2026-05-03 20:15 | -34.71319 | -58.96245 | 13009 ft | 351 kts | 150° |
| 2026-05-03 20:16 | -34.73340 | -58.94592 | 12564 ft | 350 kts | 150° |
| 2026-05-03 20:16 | -34.75357 | -58.92950 | 12115 ft | 348 kts | 150° |
| 2026-05-03 20:16 | -34.77371 | -58.91315 | 11664 ft | 347 kts | 150° |
| 2026-05-03 20:16 | -34.79355 | -58.89718 | 11221 ft | 346 kts | 150° |
| 2026-05-03 20:17 | -34.81383 | -58.88103 | 10766 ft | 344 kts | 150° |
| 2026-05-03 20:17 | -34.83390 | -58.86526 | 10321 ft | 342 kts | 150° |
| 2026-05-03 20:17 | -34.85390 | -58.84975 | 9873 ft | 341 kts | 150° |
| 2026-05-03 20:17 | -34.87390 | -58.83438 | 9423 ft | 338 kts | 150° |
| 2026-05-03 20:18 | -34.89357 | -58.81948 | 8971 ft | 326 kts | 150° |
| 2026-05-03 20:18 | -34.91273 | -58.80512 | 8509 ft | 314 kts | 150° |
| 2026-05-03 20:18 | -34.93102 | -58.79149 | 8064 ft | 304 kts | 150° |
| 2026-05-03 20:18 | -34.94886 | -58.77824 | 7615 ft | 300 kts | 150° |
| 2026-05-03 20:19 | -34.96677 | -58.76498 | 7149 ft | 301 kts | 150° |
| 2026-05-03 20:19 | -34.98469 | -58.75173 | 6713 ft | 302 kts | 150° |
| 2026-05-03 20:19 | -35.00266 | -58.73849 | 6266 ft | 301 kts | 150° |
| 2026-05-03 20:19 | -35.02055 | -58.72534 | 5818 ft | 300 kts | 150° |
| 2026-05-03 20:20 | -35.03825 | -58.71236 | 5369 ft | 301 kts | 150° |
| 2026-05-03 20:20 | -35.05630 | -58.69920 | 5109 ft | 294 kts | 150° |
| 2026-05-03 20:20 | -35.07339 | -58.68684 | 5092 ft | 277 kts | 150° |
| 2026-05-03 20:20 | -35.08908 | -58.67458 | 5094 ft | 261 kts | 139° |
| 2026-05-03 20:21 | -35.10019 | -58.65800 | 5098 ft | 250 kts | 116° |
| 2026-05-03 20:21 | -35.10522 | -58.63800 | 5104 ft | 245 kts | 92° |
| 2026-05-03 20:21 | -35.10405 | -58.61753 | 5104 ft | 242 kts | 77° |
| 2026-05-03 20:21 | -35.10133 | -58.59722 | 5093 ft | 242 kts | 77° |
| 2026-05-03 20:22 | -35.09863 | -58.57700 | 5091 ft | 242 kts | 77° |
| 2026-05-03 20:22 | -35.09591 | -58.55650 | 5093 ft | 242 kts | 77° |
| 2026-05-03 20:22 | -35.09321 | -58.53634 | 5094 ft | 242 kts | 78° |
| 2026-05-03 20:22 | -35.09046 | -58.51587 | 4835 ft | 245 kts | 77° |
| 2026-05-03 20:23 | -35.08743 | -58.49584 | 4723 ft | 238 kts | 70° |
| 2026-05-03 20:23 | -35.08012 | -58.47767 | 4693 ft | 233 kts | 49° |
| 2026-05-03 20:23 | -35.06864 | -58.46418 | 4603 ft | 227 kts | 30° |
| 2026-05-03 20:23 | -35.05446 | -58.45627 | 4434 ft | 222 kts | 11° |
| 2026-05-03 20:24 | -35.03938 | -58.45456 | 4205 ft | 216 kts | 352° |
| 2026-05-03 20:24 | -35.02492 | -58.45843 | 3951 ft | 212 kts | 342° |
| 2026-05-03 20:24 | -35.01075 | -58.46342 | 3678 ft | 212 kts | 343° |
| 2026-05-03 20:24 | -34.99652 | -58.46839 | 3392 ft | 213 kts | 343° |
| 2026-05-03 20:25 | -34.98229 | -58.47336 | 3108 ft | 212 kts | 343° |
| 2026-05-03 20:25 | -34.96813 | -58.47830 | 2823 ft | 210 kts | 342° |
| 2026-05-03 20:25 | -34.95430 | -58.48312 | 2537 ft | 204 kts | 341° |
| 2026-05-03 20:25 | -34.94083 | -58.48781 | 2296 ft | 200 kts | 340° |
| 2026-05-03 20:26 | -34.92760 | -58.49243 | 2040 ft | 195 kts | 341° |
| 2026-05-03 20:26 | -34.91478 | -58.49689 | 1750 ft | 187 kts | 343° |
| 2026-05-03 20:26 | -34.90267 | -58.50111 | 1526 ft | 176 kts | 345° |
| 2026-05-03 20:26 | -34.89114 | -58.50512 | 1293 ft | 167 kts | 345° |
| 2026-05-03 20:27 | -34.88053 | -58.50882 | 1091 ft | 150 kts | 345° |
| 2026-05-03 20:27 | -34.87083 | -58.51219 | 886 ft | 141 kts | 345° |
| 2026-05-03 20:27 | -34.86152 | -58.51543 | 699 ft | 138 kts | 345° |
| 2026-05-03 20:27 | -34.85237 | -58.51859 | 528 ft | 136 kts | 345° |
| 2026-05-03 20:28 | -34.84324 | -58.52175 | 349 ft | 136 kts | 344° |
| 2026-05-03 20:28 | -34.83417 | -58.52496 | 167 ft | 136 kts | 345° |
| 2026-05-03 20:28 | -34.82539 | -58.52800 | 84 ft | 117 kts | 344° |
| 2026-05-03 20:28 | -34.81929 | -58.53013 | 82 ft | 66 kts | 343° |
| 2026-05-03 20:29 | -34.81633 | -58.53116 | 83 ft | 26 kts | 344° |
| 2026-05-03 20:29 | -34.81539 | -58.53201 | 84 ft | 16 kts | 305° |
| 2026-05-03 20:29 | -34.81489 | -58.53306 | 70 ft | 10 kts | 298° |
| 2026-05-03 20:29 | -34.81455 | -58.53380 | 76 ft | 10 kts | 298° |
| 2026-05-03 20:30 | -34.81425 | -58.53446 | 76 ft | 8 kts | 299° |
| 2026-05-03 20:30 | -34.81399 | -58.53505 | 75 ft | 7 kts | 298° |
| 2026-05-03 20:30 | -34.81388 | -58.53528 | 66 ft | 2 kts | 298° |
| 2026-05-03 20:30 | -34.81384 | -58.53540 | 75 ft | 1 kts | 292° |
| 2026-05-03 20:31 | -34.81383 | -58.53547 | 75 ft | 1 kts | 283° |
| 2026-05-03 20:31 | -34.81382 | -58.53549 | 75 ft | 0 kts | 280° |
| 2026-05-03 20:31 | -34.81382 | -58.53551 | 75 ft | 1 kts | 280° |
| 2026-05-03 20:32 | -34.81388 | -58.53582 | 68 ft | 7 kts | 242° |
| 2026-05-03 20:32 | -34.81446 | -58.53617 | 75 ft | 11 kts | 201° |
| 2026-05-03 20:32 | -34.81500 | -58.53645 | 67 ft | 6 kts | 204° |
| 2026-05-03 20:32 | -34.81532 | -58.53665 | 75 ft | 5 kts | 208° |
| 2026-05-03 20:33 | -34.81542 | -58.53682 | 75 ft | 3 kts | 256° |
| 2026-05-03 20:33 | -34.81541 | -58.53689 | 68 ft | 3 kts | 279° |
| 2026-05-03 20:34 | -34.81470 | -58.53747 | 75 ft | 0 kts | 327° |